Aviation Digital Data Service (ADDS)

Output produced by METARs form (2149 UTC 26 February 2020)
found at http://www.aviationweather.gov/metar/data/
 
Forecast for: LOWS (SALZBURG AIRPORT, AT)
Text: TAF LOWS 261715Z 2618/2718 28006KT 9999 SCT040 BKN120 TX07/2713Z TN01/2618Z
Forecast period: 1800 UTC 26 February 2020 to 1800 UTC 27 February 2020
Forecast type: FROM: standard forecast or significant change
Winds: from the W (280 degrees) at 7 MPH (6 knots; 3.1 m/s)
Visibility: 6 or more miles 10+ km)
Ceiling: 12000 feet AGL
Clouds: scattered clouds at 4000 feet AGL
broken clouds at 12000 feet AGL
Weather: no significant weather forecast for this period
Text: TEMPO 2618/2708 28010KT 6000 -SHSN SCT012 BKN020
Forecast period: 1800 UTC 26 February 2020 to 0800 UTC 27 February 2020
Forecast type: TEMPORARY: The following changes expected for less than half the time period
Winds: from the W (280 degrees) at 12 MPH (10 knots; 5.1 m/s)
Visibility: 4 miles (6 km)
Ceiling: 2000 feet AGL
Clouds: scattered clouds at 1200 feet AGL
broken clouds at 2000 feet AGL
Weather: -SHSN  (light snow showers)
Text: PROB30
Forecast period: 2100 UTC 26 February 2020 to 0000 UTC 27 February 2020
Forecast type: TEMPORARY: The following changes expected for less than half the time period
Visibility: 1.24 miles (2.00 km)
Ceiling: 1200 feet AGL
Clouds: broken clouds at 1200 feet AGL
Weather: SHSN  (snow showers)